Time;durP1;ratioP1;P1;durP2;ratioP2;P2;SDS_P1;SDS_P2;PMS_P1;PMS_P2;Temp;Humidity;BMP_temperature;BMP_pressure;BME280_temperature;BME280_humidity;BME280_pressure;Samples;Min_cycle;Max_cycle;Signal;HPM_P1;HPM_P2
2023/06/20 00:01:13;;;;;;;9.40;8.60;;;23.30;99.00;;;;;;5035741;28;20178;-60
2023/06/20 00:03:39;;;;;;;10.27;9.37;;;23.20;98.80;;;;;;5039894;28;20629;-59
2023/06/20 00:06:04;;;;;;;10.20;9.07;;;23.20;98.80;;;;;;5044006;28;20216;-60
2023/06/20 00:08:30;;;;;;;9.17;8.47;;;23.10;98.90;;;;;;5035157;28;20186;-60
2023/06/20 00:10:56;;;;;;;8.57;7.83;;;23.10;99.20;;;;;;5034628;28;20572;-60
2023/06/20 00:13:22;;;;;;;9.80;8.87;;;23.10;99.60;;;;;;5035177;28;20269;-60
2023/06/20 00:15:47;;;;;;;8.30;7.60;;;23.10;99.80;;;;;;5034364;28;20249;-60
2023/06/20 00:18:13;;;;;;;8.93;8.23;;;23.10;99.90;;;;;;5035177;28;20166;-61
2023/06/20 00:20:39;;;;;;;10.10;9.20;;;23.10;99.90;;;;;;5034390;28;20198;-60
2023/06/20 00:23:05;;;;;;;8.90;8.20;;;23.10;99.90;;;;;;5035057;28;20610;-60
2023/06/20 00:25:30;;;;;;;9.63;8.33;;;23.00;99.50;;;;;;5037837;28;20622;-60
2023/06/20 00:27:56;;;;;;;9.30;8.40;;;22.90;99.70;;;;;;5042495;28;20174;-60
2023/06/20 00:30:22;;;;;;;8.77;8.03;;;22.90;99.90;;;;;;5042996;28;20563;-60
2023/06/20 00:32:47;;;;;;;8.57;7.70;;;22.90;99.90;;;;;;5053901;28;20174;-60
2023/06/20 00:35:13;;;;;;;9.50;8.53;;;22.90;99.90;;;;;;5054797;28;20197;-60
2023/06/20 00:37:39;;;;;;;8.87;8.27;;;23.00;99.90;;;;;;5045273;28;20202;-60
2023/06/20 00:40:09;;;;;;;8.53;7.93;;;23.00;99.90;;;;;;5034276;28;20237;-60
2023/06/20 00:42:35;;;;;;;9.30;8.60;;;23.00;99.90;;;;;;5034755;28;20170;-60
2023/06/20 00:45:03;;;;;;;9.80;8.87;;;23.00;99.90;;;;;;5039843;28;20733;-60
2023/06/20 00:47:29;;;;;;;9.20;8.50;;;23.00;99.90;;;;;;5054590;28;20454;-60
2023/06/20 00:49:55;;;;;;;9.90;9.10;;;22.90;99.90;;;;;;5053840;28;20922;-60
2023/06/20 00:52:22;;;;;;;9.73;9.00;;;22.80;99.90;;;;;;5054133;28;20427;-60
2023/06/20 00:54:50;;;;;;;9.83;8.57;;;22.70;99.90;;;;;;5053551;28;20408;-60
2023/06/20 00:57:18;;;;;;;10.83;9.40;;;22.70;99.90;;;;;;5046165;28;20905;-60
2023/06/20 00:59:49;;;;;;;9.93;9.23;;;22.60;99.90;;;;;;5033798;28;20202;-60
2023/06/20 01:02:15;;;;;;;9.40;8.70;;;22.70;99.90;;;;;;5034384;28;20397;-60
2023/06/20 01:04:44;;;;;;;10.30;9.30;;;22.60;99.90;;;;;;5033639;28;20433;-60
2023/06/20 01:07:17;;;;;;;9.60;8.80;;;22.70;99.90;;;;;;5053975;28;20444;-61
2023/06/20 01:09:52;;;;;;;9.63;8.90;;;22.60;99.90;;;;;;5026684;28;20516;-60
2023/06/20 01:12:28;;;;;;;9.10;8.40;;;22.60;99.90;;;;;;5033953;28;20868;-60
2023/06/20 01:15:09;;;;;;;8.50;7.90;;;22.60;99.90;;;;;;5033228;28;20900;-60
2023/06/20 01:17:52;;;;;;;9.53;8.73;;;22.60;99.90;;;;;;5034070;28;20401;-61
2023/06/20 01:20:31;;;;;;;9.20;8.50;;;22.60;99.90;;;;;;5033978;28;20526;-60
2023/06/20 01:23:08;;;;;;;11.20;10.30;;;22.50;99.90;;;;;;5033132;28;20439;-60
2023/06/20 01:25:49;;;;;;;9.30;8.60;;;22.50;99.90;;;;;;5028408;28;20788;-60
2023/06/20 01:28:46;;;;;;;8.60;8.00;;;22.50;99.90;;;;;;5046109;28;20455;-60
2023/06/20 01:31:19;;;;;;;9.73;9.03;;;22.40;99.90;;;;;;5047810;28;20428;-60
2023/06/20 01:33:52;;;;;;;9.50;8.80;;;22.40;99.90;;;;;;5035318;28;20765;-60
2023/06/20 01:36:20;;;;;;;12.33;8.97;;;22.30;99.90;;;;;;5053216;28;20872;-60
2023/06/20 01:38:49;;;;;;;10.57;9.67;;;22.30;99.90;;;;;;5035200;28;20469;-60
2023/06/20 01:41:19;;;;;;;10.70;9.80;;;22.30;99.90;;;;;;5033674;28;20492;-60
2023/06/20 01:43:48;;;;;;;9.57;8.77;;;22.20;99.90;;;;;;5034784;28;20761;-60
2023/06/20 01:46:16;;;;;;;9.70;9.00;;;22.20;99.90;;;;;;5053071;28;20404;-60
2023/06/20 01:48:43;;;;;;;10.43;9.63;;;22.20;99.90;;;;;;5052998;28;20404;-60
2023/06/20 01:51:10;;;;;;;10.03;9.23;;;22.30;99.90;;;;;;5052949;28;20408;-60
2023/06/20 01:53:37;;;;;;;10.27;9.40;;;22.30;99.90;;;;;;5053327;28;20750;-60
2023/06/20 01:56:05;;;;;;;10.00;9.10;;;22.30;99.90;;;;;;5052334;28;20408;-60
2023/06/20 01:58:33;;;;;;;10.23;9.43;;;22.30;99.90;;;;;;5036073;28;20777;-60
2023/06/20 02:00:59;;;;;;;10.70;9.73;;;22.40;99.90;;;;;;5036946;28;20448;-60
2023/06/20 02:03:28;;;;;;;10.63;9.63;;;22.30;99.90;;;;;;5050316;28;20408;-60
2023/06/20 02:05:56;;;;;;;11.17;10.07;;;22.40;99.90;;;;;;5052318;28;20409;-60
2023/06/20 02:08:24;;;;;;;10.53;9.53;;;22.50;99.90;;;;;;5052849;28;21541;-60
2023/06/20 02:10:51;;;;;;;10.83;9.93;;;22.50;99.90;;;;;;5015636;28;20929;-60
2023/06/20 02:13:21;;;;;;;10.97;9.93;;;22.50;99.90;;;;;;5032734;28;20475;-60
2023/06/20 02:15:50;;;;;;;10.47;9.60;;;22.60;99.90;;;;;;5031831;28;20840;-59
2023/06/20 02:18:16;;;;;;;11.10;10.07;;;22.50;99.90;;;;;;5032548;28;20392;-60
2023/06/20 02:20:42;;;;;;;14.00;10.50;;;22.50;99.90;;;;;;5032057;28;20441;-59
2023/06/20 02:23:10;;;;;;;11.03;10.10;;;22.60;99.90;;;;;;5038840;28;20481;-60
2023/06/20 02:25:39;;;;;;;11.57;10.60;;;22.60;99.90;;;;;;5040025;28;20227;-60
2023/06/20 02:28:07;;;;;;;11.60;10.60;;;22.60;99.90;;;;;;5047086;28;20420;-60
2023/06/20 02:30:35;;;;;;;11.07;10.17;;;22.60;99.90;;;;;;5052421;28;20902;-61
2023/06/20 02:33:05;;;;;;;10.27;9.37;;;22.60;99.90;;;;;;5052060;28;20400;-60
2023/06/20 02:35:33;;;;;;;9.73;8.93;;;22.60;99.90;;;;;;5052779;28;20803;-61
2023/06/20 02:38:01;;;;;;;10.47;9.57;;;22.60;99.90;;;;;;5051831;28;20399;-60
2023/06/20 02:40:27;;;;;;;10.30;9.23;;;22.60;99.90;;;;;;5036934;28;20476;-60
2023/06/20 02:42:52;;;;;;;9.93;9.13;;;22.60;99.90;;;;;;5032345;28;20401;-60
2023/06/20 02:45:19;;;;;;;9.37;8.57;;;22.60;99.90;;;;;;5032673;28;20174;-60
2023/06/20 02:48:07;;;;;;;10.17;9.17;;;22.70;99.90;;;;;;5014239;28;20558;-60
2023/06/20 02:51:01;;;;;;;10.83;9.80;;;22.70;99.90;;;;;;5032440;28;20401;-60
2023/06/20 02:53:39;;;;;;;11.40;10.30;;;22.70;99.90;;;;;;5032372;28;20922;-60
2023/06/20 02:56:12;;;;;;;11.30;10.20;;;22.60;99.90;;;;;;5034672;28;20405;-60
2023/06/20 02:58:47;;;;;;;9.67;8.97;;;22.60;99.90;;;;;;5056369;28;20419;-60
2023/06/20 03:01:21;;;;;;;10.77;9.77;;;22.60;99.90;;;;;;5053204;28;20473;-60
2023/06/20 03:03:49;;;;;;;12.53;9.60;;;22.60;99.90;;;;;;5055856;28;20491;-60
2023/06/20 03:06:16;;;;;;;9.53;8.73;;;22.60;99.90;;;;;;5056389;28;20436;-60
2023/06/20 03:08:44;;;;;;;10.30;9.40;;;22.50;99.90;;;;;;5039146;28;20429;-60
2023/06/20 03:11:10;;;;;;;10.03;9.23;;;22.60;99.90;;;;;;5034653;28;20958;-60
2023/06/20 03:13:39;;;;;;;11.90;10.30;;;22.50;99.90;;;;;;5036365;28;20401;-60
2023/06/20 03:16:08;;;;;;;10.27;9.47;;;22.50;99.90;;;;;;5035670;28;20393;-60
2023/06/20 03:18:36;;;;;;;11.20;10.30;;;22.50;99.90;;;;;;5035869;28;20611;-60
2023/06/20 03:21:01;;;;;;;10.50;9.40;;;22.50;99.90;;;;;;5035093;28;20952;-60
2023/06/20 03:23:27;;;;;;;11.20;10.10;;;22.50;99.90;;;;;;5036071;28;20471;-60
2023/06/20 03:25:53;;;;;;;12.57;11.40;;;22.50;99.90;;;;;;5035583;28;20260;-59
2023/06/20 03:28:20;;;;;;;11.87;10.77;;;22.40;99.90;;;;;;5036043;28;20185;-60
2023/06/20 03:30:46;;;;;;;11.23;10.33;;;22.40;99.90;;;;;;5035422;28;20401;-59
2023/06/20 03:33:11;;;;;;;10.97;10.07;;;22.40;99.90;;;;;;5049798;28;20174;-60
2023/06/20 03:35:37;;;;;;;11.57;10.67;;;22.40;99.90;;;;;;5055885;28;20631;-60
2023/06/20 03:38:03;;;;;;;11.13;10.23;;;22.30;99.90;;;;;;5054145;28;20175;-60
2023/06/20 03:40:28;;;;;;;11.37;10.30;;;22.40;99.90;;;;;;5055067;28;20670;-60
2023/06/20 03:42:54;;;;;;;14.13;13.23;;;22.30;99.90;;;;;;5055214;28;20173;-60
2023/06/20 03:45:20;;;;;;;12.17;11.37;;;22.30;99.90;;;;;;5055696;28;20166;-60
2023/06/20 03:47:46;;;;;;;9.90;9.10;;;22.20;99.90;;;;;;5055764;28;20169;-60
2023/06/20 03:50:11;;;;;;;11.80;10.90;;;22.20;99.90;;;;;;5055618;28;20602;-60
2023/06/20 03:52:37;;;;;;;8.70;7.90;;;22.20;99.90;;;;;;5055163;28;20170;-60
2023/06/20 03:55:03;;;;;;;9.67;8.97;;;22.20;99.90;;;;;;5054846;28;20636;-60
2023/06/20 03:57:29;;;;;;;10.70;9.90;;;22.20;99.90;;;;;;5055497;28;20170;-60
2023/06/20 03:59:55;;;;;;;13.40;12.10;;;22.00;99.90;;;;;;5053589;28;20464;-59
2023/06/20 04:02:20;;;;;;;11.97;10.83;;;21.90;99.90;;;;;;5042464;28;20178;-59
2023/06/20 04:04:49;;;;;;;8.80;7.90;;;21.90;99.90;;;;;;5035490;28;20178;-59
2023/06/20 04:07:18;;;;;;;10.30;9.50;;;22.00;99.90;;;;;;5034003;28;20193;-59
2023/06/20 04:09:50;;;;;;;10.40;9.63;;;22.00;99.90;;;;;;5035331;28;20425;-59
2023/06/20 04:12:16;;;;;;;11.63;10.60;;;22.00;99.90;;;;;;5035355;28;20401;-59
2023/06/20 04:14:42;;;;;;;9.77;9.07;;;22.10;99.90;;;;;;5043024;28;20416;-59
2023/06/20 04:17:08;;;;;;;10.50;9.40;;;22.10;99.90;;;;;;5053536;28;20428;-58
2023/06/20 04:19:34;;;;;;;9.40;8.60;;;22.10;99.90;;;;;;5055091;28;20282;-59
2023/06/20 04:22:00;;;;;;;13.40;12.50;;;22.10;99.90;;;;;;5054295;28;20400;-59
2023/06/20 04:24:26;;;;;;;10.70;9.90;;;22.20;99.90;;;;;;5054139;28;20554;-59
2023/06/20 04:26:54;;;;;;;10.30;9.60;;;22.20;99.90;;;;;;5037599;28;20471;-58
2023/06/20 04:29:20;;;;;;;10.33;9.50;;;22.30;99.90;;;;;;5034848;28;20417;-62
2023/06/20 04:31:47;;;;;;;10.13;9.33;;;22.30;99.90;;;;;;5049583;28;20455;-59
2023/06/20 04:34:13;;;;;;;12.30;11.30;;;22.40;99.90;;;;;;5054269;28;20458;-59
2023/06/20 04:36:38;;;;;;;10.93;10.03;;;22.40;99.90;;;;;;5054088;28;20883;-58
2023/06/20 04:39:06;;;;;;;9.40;8.60;;;22.40;99.90;;;;;;5035910;28;20272;-58
2023/06/20 04:41:32;;;;;;;11.33;10.50;;;22.40;99.90;;;;;;5017145;28;20261;-59
2023/06/20 04:44:00;;;;;;;9.40;8.60;;;22.40;99.90;;;;;;5039964;28;20508;-58
2023/06/20 04:46:26;;;;;;;10.13;9.33;;;22.40;99.90;;;;;;5035255;28;20170;-59
2023/06/20 04:48:52;;;;;;;10.13;9.23;;;22.40;99.90;;;;;;5053083;28;20416;-58
2023/06/20 04:51:18;;;;;;;9.10;8.40;;;22.40;99.90;;;;;;5054476;28;20860;-59
2023/06/20 04:53:43;;;;;;;10.13;9.43;;;22.50;99.90;;;;;;5034634;28;20641;-59
2023/06/20 04:56:09;;;;;;;9.60;8.87;;;22.60;99.90;;;;;;5034773;28;21655;-58
2023/06/20 04:58:36;;;;;;;11.20;10.30;;;22.60;99.90;;;;;;5049932;28;20178;-59
2023/06/20 05:01:03;;;;;;;9.37;8.67;;;22.70;99.90;;;;;;5032939;28;20232;-59
2023/06/20 05:03:30;;;;;;;11.50;10.70;;;22.70;99.90;;;;;;5050427;28;20437;-58
2023/06/20 05:05:56;;;;;;;8.73;8.00;;;22.70;99.90;;;;;;5053312;28;20503;-58
2023/06/20 05:08:21;;;;;;;10.33;9.57;;;22.70;99.90;;;;;;5042132;28;21023;-58
2023/06/20 05:10:47;;;;;;;8.77;8.00;;;22.70;99.90;;;;;;5045861;28;20186;-59
2023/06/20 05:13:13;;;;;;;9.37;8.77;;;22.80;99.90;;;;;;5033562;28;20167;-58
2023/06/20 05:15:39;;;;;;;9.70;8.83;;;22.80;99.90;;;;;;5035431;28;20893;-59
2023/06/20 05:18:05;;;;;;;10.63;10.00;;;22.80;99.90;;;;;;5046952;28;20972;-59
2023/06/20 05:20:30;;;;;;;10.37;9.50;;;22.80;99.90;;;;;;5045540;28;20586;-58
2023/06/20 05:22:56;;;;;;;9.40;8.60;;;22.80;99.90;;;;;;5053168;28;20224;-58
2023/06/20 05:25:22;;;;;;;8.53;7.93;;;22.90;99.90;;;;;;5049367;28;20585;-59
2023/06/20 05:27:47;;;;;;;9.47;8.80;;;22.90;99.90;;;;;;5042228;28;20260;-58
2023/06/20 05:30:13;;;;;;;9.83;9.13;;;22.90;99.90;;;;;;5051965;28;20251;-58
2023/06/20 05:32:39;;;;;;;10.53;9.63;;;22.90;99.90;;;;;;5039028;28;20186;-58
2023/06/20 05:35:07;;;;;;;10.20;9.40;;;22.90;99.90;;;;;;5049272;28;20173;-59
2023/06/20 05:37:36;;;;;;;11.73;10.53;;;22.90;99.90;;;;;;5033039;28;20568;-59
2023/06/20 05:40:05;;;;;;;11.23;10.30;;;22.90;99.90;;;;;;5035370;28;20483;-61
2023/06/20 05:42:31;;;;;;;8.83;8.23;;;23.00;99.90;;;;;;5043805;28;20915;-61
2023/06/20 05:44:57;;;;;;;10.80;10.00;;;23.10;99.90;;;;;;5040902;28;20421;-62
2023/06/20 05:47:23;;;;;;;9.27;8.50;;;23.10;99.90;;;;;;5043691;28;20177;-62
2023/06/20 05:49:48;;;;;;;9.17;8.47;;;23.10;99.90;;;;;;5033334;28;20424;-63
2023/06/20 05:52:15;;;;;;;10.20;9.40;;;23.10;99.90;;;;;;5035587;28;20223;-63
2023/06/20 05:54:42;;;;;;;10.10;9.40;;;23.20;99.90;;;;;;5033317;28;20253;-62
2023/06/20 05:57:08;;;;;;;11.60;10.80;;;23.20;99.90;;;;;;5032521;28;20408;-63
2023/06/20 05:59:34;;;;;;;10.30;9.60;;;23.30;99.90;;;;;;5003597;28;20453;-63
2023/06/20 06:01:59;;;;;;;9.27;8.57;;;23.30;99.90;;;;;;5031206;28;20228;-62
2023/06/20 06:04:25;;;;;;;12.97;11.77;;;23.30;99.90;;;;;;5047997;28;20174;-65
2023/06/20 06:06:52;;;;;;;14.93;13.63;;;23.30;99.90;;;;;;5015457;28;20177;-64
2023/06/20 06:09:18;;;;;;;17.70;14.63;;;23.30;99.90;;;;;;5032275;28;20460;-63
2023/06/20 06:11:45;;;;;;;15.20;13.80;;;23.50;99.90;;;;;;5033124;28;20479;-63
2023/06/20 06:14:11;;;;;;;9.77;8.60;;;23.60;99.90;;;;;;5032259;28;20170;-62
2023/06/20 06:16:37;;;;;;;8.57;7.87;;;23.70;99.90;;;;;;5032900;28;20417;-62
2023/06/20 06:19:04;;;;;;;14.13;12.87;;;23.70;99.90;;;;;;5031945;28;20413;-62
2023/06/20 06:21:30;;;;;;;9.00;8.20;;;23.70;99.90;;;;;;5033030;28;20178;-62
2023/06/20 06:23:55;;;;;;;9.07;8.27;;;23.80;99.90;;;;;;5041527;28;20515;-61
2023/06/20 06:26:21;;;;;;;14.17;12.87;;;23.80;99.90;;;;;;5035308;28;20536;-62
2023/06/20 06:28:47;;;;;;;10.93;10.23;;;23.90;99.90;;;;;;5046394;28;20194;-62
2023/06/20 06:31:17;;;;;;;8.93;8.33;;;23.80;99.90;;;;;;5050448;28;20177;-62
2023/06/20 06:33:43;;;;;;;8.57;7.87;;;23.70;99.90;;;;;;5043823;28;20169;-63
2023/06/20 06:36:10;;;;;;;9.27;8.37;;;23.60;99.90;;;;;;5045612;28;20757;-63
2023/06/20 06:38:36;;;;;;;11.33;10.13;;;23.70;99.90;;;;;;5022377;28;20455;-62
2023/06/20 06:41:03;;;;;;;8.13;7.53;;;23.80;99.90;;;;;;5071668;28;20471;-64
2023/06/20 06:43:29;;;;;;;8.20;7.60;;;23.80;99.90;;;;;;5064492;28;20482;-65
2023/06/20 06:45:56;;;;;;;10.37;9.77;;;23.80;99.90;;;;;;5065530;28;20172;-65
2023/06/20 06:48:22;;;;;;;10.87;10.10;;;23.70;99.90;;;;;;5052424;28;20493;-62
2023/06/20 06:50:48;;;;;;;8.30;7.70;;;23.60;99.90;;;;;;5054719;28;20531;-65
2023/06/20 06:53:14;;;;;;;17.33;14.80;;;23.60;99.90;;;;;;5068730;28;20172;-63
2023/06/20 06:55:46;;;;;;;9.27;8.67;;;23.50;99.90;;;;;;5054093;28;20748;-63
2023/06/20 06:58:11;;;;;;;16.20;14.50;;;23.40;99.90;;;;;;5065839;28;20177;-62
2023/06/20 07:00:37;;;;;;;7.53;7.03;;;23.50;99.90;;;;;;5072333;28;20446;-63
2023/06/20 07:03:04;;;;;;;8.33;7.73;;;23.50;99.90;;;;;;5069315;28;20161;-64
2023/06/20 07:05:30;;;;;;;8.90;8.20;;;23.50;99.90;;;;;;5060827;28;20234;-63
2023/06/20 07:07:56;;;;;;;11.40;10.40;;;23.50;99.90;;;;;;5066213;28;20458;-63
2023/06/20 07:10:21;;;;;;;10.70;9.70;;;23.50;99.90;;;;;;5051043;28;20193;-63
2023/06/20 07:12:47;;;;;;;12.07;10.90;;;23.60;99.90;;;;;;5059444;28;20193;-62
2023/06/20 07:15:13;;;;;;;9.80;8.90;;;23.60;99.90;;;;;;5050084;28;20637;-61
2023/06/20 07:17:38;;;;;;;11.80;11.00;;;23.70;99.90;;;;;;5066449;28;20182;-63
2023/06/20 07:20:08;;;;;;;8.93;8.13;;;23.70;99.90;;;;;;5052670;28;20197;-62
2023/06/20 07:22:33;;;;;;;10.67;9.67;;;23.70;99.90;;;;;;5055067;28;20170;-62
2023/06/20 07:24:59;;;;;;;8.57;7.77;;;23.70;99.90;;;;;;5056736;28;20883;-61
2023/06/20 07:27:25;;;;;;;10.53;9.17;;;23.70;99.90;;;;;;5053937;28;20602;-62
2023/06/20 07:29:50;;;;;;;11.60;10.90;;;23.70;99.90;;;;;;5056784;28;20181;-62
2023/06/20 07:32:16;;;;;;;11.10;10.30;;;23.70;99.90;;;;;;5060854;28;20177;-62
2023/06/20 07:34:42;;;;;;;21.20;19.37;;;23.70;99.90;;;;;;5062230;28;20200;-62
2023/06/20 07:37:08;;;;;;;11.10;10.23;;;23.70;99.90;;;;;;5060346;28;20173;-62
2023/06/20 07:39:33;;;;;;;13.93;12.93;;;23.80;99.90;;;;;;5050805;28;20232;-63
2023/06/20 07:41:59;;;;;;;10.70;9.67;;;24.00;99.90;;;;;;5039131;28;20646;-63
2023/06/20 07:44:25;;;;;;;13.00;12.27;;;24.20;99.90;;;;;;5038371;28;21135;-62
2023/06/20 07:46:51;;;;;;;10.97;10.17;;;24.30;99.90;;;;;;5040618;28;20197;-62
2023/06/20 07:49:16;;;;;;;10.50;9.80;;;24.50;99.90;;;;;;5042210;28;20175;-62
2023/06/20 07:51:43;;;;;;;8.40;7.60;;;24.70;99.90;;;;;;5043558;28;20641;-62
2023/06/20 07:54:09;;;;;;;10.30;9.50;;;24.90;99.90;;;;;;5043744;28;20185;-63
2023/06/20 07:56:35;;;;;;;9.47;8.67;;;24.90;99.90;;;;;;5044710;28;20420;-63
2023/06/20 07:59:01;;;;;;;10.53;8.77;;;25.10;99.90;;;;;;5038664;28;20171;-63
2023/06/20 08:01:27;;;;;;;9.77;8.77;;;25.20;99.90;;;;;;5045406;28;20217;-63
2023/06/20 08:03:52;;;;;;;8.77;7.90;;;25.30;99.90;;;;;;5042999;28;20420;-62
2023/06/20 08:06:18;;;;;;;9.93;9.13;;;25.50;99.90;;;;;;5038840;28;20757;-64
2023/06/20 08:08:44;;;;;;;7.37;6.87;;;25.60;99.90;;;;;;5041307;28;20221;-62
2023/06/20 08:11:10;;;;;;;7.00;6.40;;;25.60;99.90;;;;;;5048467;28;20505;-61
2023/06/20 08:13:35;;;;;;;8.60;7.80;;;25.70;99.90;;;;;;5046785;28;20173;-62
2023/06/20 08:16:01;;;;;;;9.37;8.73;;;25.80;99.90;;;;;;5051745;28;20182;-63
2023/06/20 08:18:27;;;;;;;10.23;9.43;;;26.00;99.90;;;;;;5053544;28;20176;-62
2023/06/20 08:20:53;;;;;;;8.37;7.57;;;26.10;99.90;;;;;;5055035;28;20294;-63
2023/06/20 08:23:27;;;;;;;7.90;7.30;;;26.30;99.90;;;;;;5054461;28;20883;-63
2023/06/20 08:25:54;;;;;;;9.03;8.23;;;26.30;99.90;;;;;;5055390;28;20180;-62
2023/06/20 08:28:21;;;;;;;8.83;8.23;;;26.40;99.90;;;;;;5054176;28;20409;-62
2023/06/20 08:30:47;;;;;;;9.70;9.00;;;26.60;99.40;;;;;;5054567;28;20422;-63
2023/06/20 08:33:13;;;;;;;11.83;9.10;;;26.70;99.50;;;;;;5053912;28;20879;-62
2023/06/20 08:35:39;;;;;;;8.70;8.10;;;26.80;98.50;;;;;;5054821;28;20404;-62
2023/06/20 08:38:05;;;;;;;7.70;7.13;;;26.90;97.90;;;;;;5054063;28;20179;-62
2023/06/20 08:40:31;;;;;;;8.00;7.50;;;26.90;96.60;;;;;;5052891;28;20253;-62
2023/06/20 08:42:58;;;;;;;8.00;7.50;;;27.00;97.60;;;;;;5053869;28;20295;-63
2023/06/20 08:45:24;;;;;;;9.83;9.13;;;27.10;97.60;;;;;;5054025;28;20716;-62
2023/06/20 08:47:49;;;;;;;9.13;8.50;;;27.30;98.10;;;;;;5054549;28;20389;-62
2023/06/20 08:50:15;;;;;;;8.03;7.53;;;27.40;97.40;;;;;;5053940;28;20537;-62
2023/06/20 08:52:48;;;;;;;8.10;7.30;;;27.50;96.80;;;;;;5054262;28;20644;-62
2023/06/20 08:55:15;;;;;;;7.50;7.00;;;27.70;95.80;;;;;;5053623;28;20222;-62
2023/06/20 08:57:41;;;;;;;8.70;8.20;;;27.80;94.50;;;;;;5054527;28;20505;-62
2023/06/20 09:00:11;;;;;;;7.40;6.90;;;27.90;94.50;;;;;;5053647;28;20448;-62
2023/06/20 09:02:37;;;;;;;7.33;6.67;;;28.00;94.50;;;;;;5054332;28;20883;-62
2023/06/20 09:05:04;;;;;;;7.53;7.03;;;28.10;93.80;;;;;;5054256;28;20400;-63
2023/06/20 09:07:38;;;;;;;8.00;7.30;;;28.20;93.40;;;;;;5054267;28;20793;-62
2023/06/20 09:10:05;;;;;;;8.37;7.67;;;28.30;93.10;;;;;;5052298;28;20431;-63
2023/06/20 09:12:51;;;;;;;8.10;7.60;;;28.40;92.40;;;;;;5051720;28;20424;-62
2023/06/20 09:15:27;;;;;;;7.40;7.00;;;28.40;92.90;;;;;;5033425;28;20889;-62
2023/06/20 09:18:00;;;;;;;7.70;7.00;;;28.50;93.60;;;;;;5034201;28;20389;-62
2023/06/20 09:20:30;;;;;;;7.00;6.60;;;28.60;93.30;;;;;;5033070;28;20523;-62
2023/06/20 09:22:57;;;;;;;6.73;6.23;;;28.70;92.50;;;;;;5053859;28;20409;-62
2023/06/20 09:25:25;;;;;;;6.30;5.73;;;28.80;91.60;;;;;;5049215;28;20435;-62
2023/06/20 09:27:52;;;;;;;5.73;5.40;;;28.80;90.30;;;;;;5034928;28;20432;-62
2023/06/20 09:30:19;;;;;;;6.70;6.20;;;28.80;90.50;;;;;;5033311;28;20413;-62
2023/06/20 09:32:44;;;;;;;6.73;6.30;;;28.80;90.40;;;;;;5034002;28;20405;-63
2023/06/20 09:35:13;;;;;;;6.57;6.27;;;28.60;87.90;;;;;;5015626;28;20408;-61
2023/06/20 09:37:52;;;;;;;7.63;7.00;;;28.70;91.10;;;;;;5053633;28;20493;-63
2023/06/20 09:40:19;;;;;;;6.67;6.20;;;28.90;88.70;;;;;;5052324;28;20857;-62
2023/06/20 09:42:47;;;;;;;9.13;8.63;;;29.00;90.60;;;;;;5053451;28;20883;-62
2023/06/20 09:45:15;;;;;;;7.87;7.07;;;29.10;89.80;;;;;;5052750;28;20425;-62
2023/06/20 09:47:42;;;;;;;7.20;6.70;;;29.10;86.60;;;;;;5053451;28;20396;-62
2023/06/20 09:50:13;;;;;;;7.43;7.03;;;28.70;84.80;;;;;;5052776;28;20416;-60
2023/06/20 09:52:56;;;;;;;6.20;5.90;;;28.70;87.90;;;;;;5053880;28;20721;-62
2023/06/20 09:55:25;;;;;;;6.03;5.73;;;28.80;89.90;;;;;;5052729;28;20412;-63
2023/06/20 09:57:54;;;;;;;6.60;6.20;;;28.80;89.00;;;;;;5053487;28;20466;-63
2023/06/20 10:00:23;;;;;;;7.63;7.23;;;28.90;88.60;;;;;;5052539;28;20509;-62
2023/06/20 10:02:49;;;;;;;7.00;6.70;;;28.80;85.40;;;;;;5052893;28;20818;-62
2023/06/20 10:05:17;;;;;;;6.97;6.47;;;28.50;86.90;;;;;;5050331;28;20501;-63
2023/06/20 10:07:45;;;;;;;8.17;7.67;;;28.60;87.70;;;;;;5053163;28;20432;-62
2023/06/20 10:10:12;;;;;;;6.90;6.50;;;28.70;88.60;;;;;;5034495;28;20412;-62
2023/06/20 10:12:39;;;;;;;6.43;6.03;;;28.80;87.20;;;;;;5053337;28;20407;-62
2023/06/20 10:15:09;;;;;;;7.40;6.90;;;28.80;88.00;;;;;;5046446;28;20789;-63
2023/06/20 10:17:39;;;;;;;6.90;6.50;;;28.70;86.70;;;;;;5034889;28;20404;-62
2023/06/20 10:20:08;;;;;;;6.70;6.30;;;28.70;88.40;;;;;;5053028;28;20494;-63
2023/06/20 10:22:42;;;;;;;7.17;6.67;;;29.00;89.40;;;;;;5052916;28;20435;-63
2023/06/20 10:25:12;;;;;;;7.77;7.27;;;29.00;84.90;;;;;;5052882;28;20438;-63
2023/06/20 10:27:42;;;;;;;7.60;7.20;;;29.00;85.80;;;;;;5053140;28;20499;-63
2023/06/20 10:30:12;;;;;;;7.43;7.03;;;29.10;85.30;;;;;;5052675;28;20451;-63
2023/06/20 10:33:05;;;;;;;5.80;5.50;;;29.10;86.60;;;;;;5052936;28;20782;-63
2023/06/20 10:35:31;;;;;;;7.43;7.03;;;29.20;83.50;;;;;;5037555;28;20432;-62
2023/06/20 10:38:10;;;;;;;8.27;7.77;;;29.10;82.70;;;;;;5052918;28;20439;-63
2023/06/20 10:40:39;;;;;;;6.60;6.20;;;28.90;84.90;;;;;;5052648;28;20560;-62
2023/06/20 10:43:14;;;;;;;8.63;8.13;;;28.80;85.50;;;;;;5052603;28;20431;-63
2023/06/20 10:45:57;;;;;;;8.17;7.67;;;29.00;88.50;;;;;;5052663;28;20388;-63
2023/06/20 10:48:24;;;;;;;7.30;6.80;;;29.00;85.50;;;;;;5052000;28;20392;-62
2023/06/20 10:50:51;;;;;;;8.37;7.87;;;28.70;85.20;;;;;;5034818;28;20746;-63
2023/06/20 10:53:18;;;;;;;7.10;6.70;;;28.80;87.00;;;;;;5051619;28;20801;-62
2023/06/20 10:55:43;;;;;;;6.43;6.03;;;29.00;87.10;;;;;;5052275;28;20885;-62
2023/06/20 10:58:09;;;;;;;6.37;6.00;;;29.20;85.60;;;;;;5052606;28;20412;-63
2023/06/20 11:00:35;;;;;;;6.50;6.17;;;29.40;83.60;;;;;;5050410;28;20193;-62
2023/06/20 11:03:00;;;;;;;6.83;6.43;;;29.70;84.30;;;;;;5052365;28;20204;-62
2023/06/20 11:05:29;;;;;;;6.03;5.63;;;29.70;79.60;;;;;;5051888;28;20200;-62
2023/06/20 11:08:07;;;;;;;6.13;5.73;;;29.70;80.70;;;;;;5052338;28;20166;-63
2023/06/20 11:10:37;;;;;;;5.73;5.33;;;29.80;79.30;;;;;;5051013;28;20615;-62
2023/06/20 11:13:04;;;;;;;5.70;5.40;;;29.90;81.20;;;;;;5052119;28;20385;-63
2023/06/20 11:15:32;;;;;;;6.53;6.13;;;29.90;78.70;;;;;;5049503;28;20904;-62
2023/06/20 11:18:09;;;;;;;6.83;6.43;;;30.00;80.40;;;;;;5055354;28;20412;-62
2023/06/20 11:20:41;;;;;;;7.40;7.00;;;30.20;80.80;;;;;;5054234;28;20451;-62
2023/06/20 11:23:12;;;;;;;5.40;5.20;;;30.40;80.50;;;;;;5056366;28;20400;-63
2023/06/20 11:25:39;;;;;;;5.80;5.50;;;30.60;77.10;;;;;;5037837;28;20465;-62
2023/06/20 11:28:10;;;;;;;6.50;6.20;;;30.50;75.20;;;;;;5056165;28;20400;-62
2023/06/20 11:30:41;;;;;;;7.20;6.70;;;30.60;76.20;;;;;;5055188;28;20903;-62
2023/06/20 11:33:13;;;;;;;6.70;6.30;;;30.50;73.90;;;;;;5056050;28;20401;-62
2023/06/20 11:35:42;;;;;;;7.07;6.67;;;30.40;76.70;;;;;;5054806;28;20436;-62
2023/06/20 11:38:22;;;;;;;7.37;6.87;;;30.40;77.30;;;;;;5054174;28;20462;-62
2023/06/20 11:41:03;;;;;;;6.07;5.77;;;30.60;77.20;;;;;;5075815;28;20447;-62
2023/06/20 11:43:43;;;;;;;6.70;6.30;;;30.70;75.60;;;;;;5057336;28;20403;-62
2023/06/20 11:46:11;;;;;;;5.80;5.50;;;30.70;74.10;;;;;;5075370;28;20401;-63
2023/06/20 11:48:50;;;;;;;6.10;5.80;;;30.80;74.00;;;;;;5074398;28;20457;-62
2023/06/20 11:51:20;;;;;;;7.43;7.03;;;31.00;73.20;;;;;;5057107;28;20403;-61
2023/06/20 11:53:47;;;;;;;7.53;7.13;;;30.90;72.50;;;;;;5075581;28;20402;-62
2023/06/20 11:56:14;;;;;;;8.87;8.47;;;30.90;72.90;;;;;;5075763;28;20403;-62
2023/06/20 11:58:42;;;;;;;8.30;7.70;;;31.00;74.70;;;;;;5057708;28;20434;-62
2023/06/20 12:01:16;;;;;;;6.53;6.23;;;31.10;74.30;;;;;;5075312;28;20431;-62
2023/06/20 12:03:44;;;;;;;8.17;7.77;;;31.20;75.30;;;;;;5075831;28;20450;-62
2023/06/20 12:06:29;;;;;;;7.30;6.80;;;31.30;73.30;;;;;;5073273;28;20423;-62
2023/06/20 12:09:09;;;;;;;6.93;6.63;;;31.20;73.00;;;;;;5074490;28;20427;-63
2023/06/20 12:11:45;;;;;;;7.83;7.43;;;31.30;72.50;;;;;;5074316;28;20407;-62
2023/06/20 12:14:11;;;;;;;6.50;6.20;;;31.40;72.30;;;;;;5075338;28;20387;-63
2023/06/20 12:16:37;;;;;;;7.40;7.00;;;31.50;73.80;;;;;;5070681;28;20820;-62
2023/06/20 12:19:03;;;;;;;7.93;7.43;;;31.40;72.00;;;;;;5075318;28;20403;-63
2023/06/20 12:21:29;;;;;;;7.47;7.00;;;31.30;72.10;;;;;;5074427;28;20200;-62
2023/06/20 12:23:55;;;;;;;7.47;6.83;;;31.20;73.00;;;;;;5075049;28;20169;-63
2023/06/20 12:26:22;;;;;;;9.13;8.63;;;31.10;72.70;;;;;;5074390;28;20158;-62
2023/06/20 12:28:48;;;;;;;8.10;7.70;;;31.00;73.80;;;;;;5053469;28;20415;-62
2023/06/20 12:31:14;;;;;;;7.80;7.40;;;30.70;70.70;;;;;;5063493;28;20420;-63
2023/06/20 12:33:40;;;;;;;7.57;7.07;;;30.50;73.90;;;;;;5054218;28;20180;-62
2023/06/20 12:36:09;;;;;;;8.30;7.80;;;30.50;74.00;;;;;;5037213;28;20215;-63
2023/06/20 12:38:35;;;;;;;6.80;6.40;;;30.60;75.70;;;;;;5050628;28;20473;-63
2023/06/20 12:41:01;;;;;;;8.17;7.57;;;30.60;74.00;;;;;;5034515;28;20474;-63
2023/06/20 12:43:27;;;;;;;7.43;6.73;;;30.70;72.90;;;;;;5034127;28;20498;-63
2023/06/20 12:45:53;;;;;;;7.07;6.60;;;30.70;73.60;;;;;;5034997;28;20163;-63